createdAt,value
2023-01-11T00:01:53.383Z,5.30
2023-01-11T00:04:23.348Z,5.30
2023-01-11T00:06:51.786Z,5.20
2023-01-11T00:09:20.271Z,5.20
2023-01-11T00:11:50.398Z,5.10
2023-01-11T00:14:18.813Z,5.10
2023-01-11T00:16:47.284Z,5.10
2023-01-11T00:19:16.680Z,5.10
2023-01-11T00:21:45.081Z,5.10
2023-01-11T00:24:15.518Z,5.10
2023-01-11T00:26:43.905Z,5.10
2023-01-11T00:29:15.200Z,5.20
2023-01-11T00:31:43.681Z,5.20
2023-01-11T00:34:12.859Z,5.20
2023-01-11T00:36:41.292Z,5.30
2023-01-11T00:39:09.694Z,5.30
2023-01-11T00:41:55.209Z,5.30
2023-01-11T00:44:42.356Z,5.30
2023-01-11T00:47:32.978Z,5.20
2023-01-11T00:50:01.528Z,5.20
2023-01-11T00:52:30.087Z,5.10
2023-01-11T00:54:58.456Z,5.00
2023-01-11T00:57:26.833Z,5.00
2023-01-11T00:59:56.591Z,5.00
2023-01-11T01:02:27.072Z,5.00
2023-01-11T01:04:56.549Z,4.90
2023-01-11T01:07:25.091Z,4.90
2023-01-11T01:09:56.311Z,4.90
2023-01-11T01:12:38.599Z,4.90
2023-01-11T01:15:09.876Z,4.90
2023-01-11T01:17:38.271Z,4.80
2023-01-11T01:20:08.126Z,4.80
2023-01-11T01:22:36.532Z,4.80
2023-01-11T01:25:05.587Z,4.80
2023-01-11T01:27:34.666Z,4.80
2023-01-11T01:30:03.104Z,4.80
2023-01-11T01:32:33.519Z,4.80
2023-01-11T01:35:01.993Z,4.80
2023-01-11T01:37:30.369Z,4.80
2023-01-11T01:40:02.188Z,4.80
2023-01-11T01:42:30.597Z,4.80
2023-01-11T01:45:06.179Z,4.80
2023-01-11T01:47:45.499Z,4.80
2023-01-11T01:50:18.726Z,4.70
2023-01-11T01:52:52.813Z,4.70
2023-01-11T01:55:26.351Z,4.80
2023-01-11T01:57:58.201Z,4.80
2023-01-11T02:00:26.761Z,4.80
2023-01-11T02:02:58.480Z,4.80
2023-01-11T02:05:28.189Z,4.90
2023-01-11T02:07:59.129Z,4.90
2023-01-11T02:10:28.981Z,4.90
2023-01-11T02:13:01.377Z,5.00
2023-01-11T02:15:30.852Z,5.00
2023-01-11T02:18:00.743Z,4.90
2023-01-11T02:20:55.271Z,4.90
2023-01-11T02:23:48.062Z,4.80
2023-01-11T02:26:58.615Z,4.90
2023-01-11T02:29:38.875Z,4.80
2023-01-11T02:32:22.491Z,4.80
2023-01-11T02:34:59.190Z,4.70
2023-01-11T02:37:34.898Z,4.60
2023-01-11T02:40:10.525Z,4.60
2023-01-11T02:42:58.246Z,4.60
2023-01-11T02:45:42.271Z,4.50
2023-01-11T02:48:22.055Z,4.50
2023-01-11T02:50:57.189Z,4.40
2023-01-11T02:53:30.071Z,4.30
2023-01-11T02:56:02.780Z,4.40
2023-01-11T02:58:36.292Z,4.40
2023-01-11T03:01:06.785Z,4.30
2023-01-11T03:03:35.224Z,4.30
2023-01-11T03:06:07.111Z,4.40
2023-01-11T03:09:03.666Z,4.30
2023-01-11T03:12:04.527Z,4.40
2023-01-11T03:14:45.748Z,4.40
2023-01-11T03:17:29.777Z,4.50
2023-01-11T03:20:08.390Z,4.40
2023-01-11T03:22:47.217Z,4.30
2023-01-11T03:25:22.165Z,4.30
2023-01-11T03:27:58.444Z,4.40
2023-01-11T03:30:36.168Z,4.40
2023-01-11T03:33:11.437Z,4.30
2023-01-11T03:35:48.242Z,4.20
2023-01-11T03:38:23.132Z,4.10
2023-01-11T03:40:56.369Z,4.20
2023-01-11T03:43:29.141Z,4.20
2023-01-11T03:46:01.063Z,4.30
2023-01-11T03:48:35.797Z,4.30
2023-01-11T03:51:06.833Z,4.20
2023-01-11T03:53:37.798Z,4.10
2023-01-11T03:56:11.625Z,4.00
2023-01-11T03:58:41.049Z,4.00
2023-01-11T04:01:11.688Z,4.00
2023-01-11T04:03:41.500Z,4.00
2023-01-11T04:06:12.412Z,4.00
2023-01-11T04:08:40.787Z,4.00
2023-01-11T04:11:09.186Z,4.10
2023-01-11T04:13:38.332Z,4.00
2023-01-11T04:16:09.845Z,4.00
2023-01-11T04:18:38.243Z,4.00
2023-01-11T04:21:08.060Z,4.00
2023-01-11T04:23:36.431Z,4.00
2023-01-11T04:26:04.988Z,4.00
2023-01-11T04:28:33.354Z,3.90
2023-01-11T04:31:01.738Z,3.90
2023-01-11T04:33:30.230Z,3.90
2023-01-11T04:35:58.638Z,3.80
2023-01-11T04:38:28.400Z,3.80
2023-01-11T04:41:16.820Z,3.80
2023-01-11T04:43:44.275Z,3.80
2023-01-11T04:46:12.630Z,3.80
2023-01-11T04:48:42.038Z,3.80
2023-01-11T04:51:10.912Z,3.70
2023-01-11T04:53:41.167Z,3.80
2023-01-11T04:56:12.022Z,3.70
2023-01-11T04:58:40.408Z,3.70
2023-01-11T05:01:12.892Z,3.70
2023-01-11T05:03:41.315Z,3.60
2023-01-11T05:06:10.308Z,3.70
2023-01-11T05:08:45.914Z,3.70
2023-01-11T05:11:14.535Z,3.80
2023-01-11T05:13:42.999Z,3.80
2023-01-11T05:16:13.287Z,3.90
2023-01-11T05:18:42.649Z,3.90
2023-01-11T05:21:12.864Z,3.90
2023-01-11T05:23:41.900Z,3.80
2023-01-11T05:26:14.804Z,3.80
2023-01-11T05:28:43.501Z,3.80
2023-01-11T05:31:14.831Z,3.70
2023-01-11T05:33:43.530Z,3.70
2023-01-11T05:36:14.941Z,3.70
2023-01-11T05:38:43.774Z,3.70
2023-01-11T05:41:13.901Z,3.70
2023-01-11T05:43:58.738Z,3.70
2023-01-11T05:46:29.164Z,3.70
2023-01-11T05:48:59.260Z,3.70
2023-01-11T05:51:30.543Z,3.70
2023-01-11T05:53:59.194Z,3.80
2023-01-11T05:56:29.584Z,3.70
2023-01-11T05:58:58.404Z,3.70
2023-01-11T06:01:27.537Z,3.70
2023-01-11T06:03:56.031Z,3.70
2023-01-11T06:06:25.279Z,3.70
2023-01-11T06:08:53.852Z,3.70
2023-01-11T06:11:24.451Z,3.70
2023-01-11T06:13:54.264Z,3.60
2023-01-11T06:16:23.782Z,3.60
2023-01-11T06:18:53.811Z,3.60
2023-01-11T06:21:22.737Z,3.60
2023-01-11T06:23:51.978Z,3.60
2023-01-11T06:26:22.642Z,3.60
2023-01-11T06:28:52.140Z,3.60
2023-01-11T06:31:22.319Z,3.60
2023-01-11T06:33:50.960Z,3.60
2023-01-11T06:36:20.193Z,3.60
2023-01-11T06:38:48.623Z,3.60
2023-01-11T06:41:17.138Z,3.50
2023-01-11T06:43:46.492Z,3.50
2023-01-11T06:46:16.635Z,3.60
2023-01-11T06:48:47.069Z,3.60
2023-01-11T06:51:16.502Z,3.60
2023-01-11T06:53:46.047Z,3.60
2023-01-11T06:56:18.877Z,3.60
2023-01-11T06:58:48.619Z,3.70
2023-01-11T07:01:19.052Z,3.70
2023-01-11T07:03:49.281Z,3.80
2023-01-11T07:06:22.007Z,3.80
2023-01-11T07:08:50.530Z,3.80
2023-01-11T07:11:19.030Z,3.90
2023-01-11T07:13:47.512Z,3.90
2023-01-11T07:16:19.016Z,4.00
2023-01-11T07:18:48.877Z,4.00
2023-01-11T07:21:17.330Z,4.00
2023-01-11T07:23:46.077Z,4.10
2023-01-11T07:26:14.933Z,4.30
2023-01-11T07:28:44.542Z,4.40
2023-01-11T07:31:12.986Z,4.50
2023-01-11T07:33:43.608Z,4.70
2023-01-11T07:36:13.481Z,4.70
2023-01-11T07:38:44.027Z,4.80
2023-01-11T07:41:26.341Z,5.10
2023-01-11T07:43:54.870Z,5.50
2023-01-11T07:46:23.346Z,5.80
2023-01-11T07:48:51.828Z,5.90
2023-01-11T07:51:24.213Z,6.10
2023-01-11T07:53:52.670Z,6.50
2023-01-11T07:56:23.427Z,6.80
2023-01-11T07:58:52.072Z,7.20
2023-01-11T08:01:20.502Z,7.40
2023-01-11T08:03:49.034Z,7.60
2023-01-11T08:06:17.545Z,7.70
2023-01-11T08:08:47.397Z,7.60
2023-01-11T08:11:33.570Z,7.60
2023-01-11T08:14:19.258Z,7.40
2023-01-11T08:16:47.743Z,7.20
2023-01-11T08:19:16.223Z,7.30
2023-01-11T08:21:44.656Z,7.50
2023-01-11T08:24:14.577Z,7.60
2023-01-11T08:26:43.018Z,7.60
2023-01-11T08:29:11.600Z,7.70
2023-01-11T08:31:40.150Z,7.70
2023-01-11T08:34:09.327Z,7.70
2023-01-11T08:36:37.790Z,7.80
2023-01-11T08:39:06.387Z,7.80
2023-01-11T08:41:36.184Z,7.90
2023-01-11T08:44:04.579Z,7.90
2023-01-11T08:46:34.320Z,7.90
2023-01-11T08:49:03.218Z,7.90
2023-01-11T08:51:33.155Z,7.80
2023-01-11T08:54:01.610Z,7.80
2023-01-11T08:56:30.049Z,7.70
2023-01-11T08:58:59.913Z,7.60
2023-01-11T09:01:28.435Z,7.50
2023-01-11T09:03:56.969Z,7.50
2023-01-11T09:06:25.554Z,7.70
2023-01-11T09:08:54.341Z,7.70
2023-01-11T09:11:40.636Z,7.90
2023-01-11T09:14:12.865Z,7.90
2023-01-11T09:16:41.327Z,8.00
2023-01-11T09:19:09.752Z,8.10
2023-01-11T09:21:38.192Z,8.20
2023-01-11T09:24:07.280Z,8.30
2023-01-11T09:26:35.785Z,8.50
2023-01-11T09:29:04.573Z,8.50
2023-01-11T09:31:34.449Z,8.50
2023-01-11T09:34:04.871Z,8.50
2023-01-11T09:36:35.985Z,8.60
2023-01-11T09:39:08.366Z,8.60
2023-01-11T09:42:06.105Z,8.70
2023-01-11T09:44:36.845Z,8.80
2023-01-11T09:47:15.438Z,8.80
2023-01-11T09:49:56.074Z,8.90
2023-01-11T09:52:29.926Z,9.00
2023-01-11T09:54:59.890Z,9.10
2023-01-11T09:57:43.672Z,8.70
2023-01-11T10:00:19.965Z,8.90
2023-01-11T10:03:13.202Z,9.40
2023-01-11T10:05:54.037Z,9.70
2023-01-11T10:18:25.684Z,8.90
2023-01-11T10:18:39.624Z,8.70
2023-01-11T10:20:43.928Z,9.00
2023-01-11T10:23:18.021Z,9.50
2023-01-11T10:25:51.755Z,9.70
2023-01-11T10:28:29.531Z,9.60
2023-01-11T10:31:28.758Z,9.30
2023-01-11T10:34:18.618Z,9.10
2023-01-11T10:37:17.016Z,9.30
2023-01-11T10:40:15.427Z,9.60
2023-01-11T10:42:48.577Z,9.80
2023-01-11T10:45:19.800Z,9.40
2023-01-11T10:47:56.481Z,9.20
2023-01-11T10:50:29.569Z,9.40
2023-01-11T10:53:07.676Z,9.70
2023-01-11T10:55:45.427Z,9.90
2023-01-11T10:58:25.641Z,10.10
2023-01-11T11:01:04.176Z,10.10
2023-01-11T11:03:49.929Z,9.50
2023-01-11T11:06:30.319Z,9.30
2023-01-11T11:09:09.001Z,9.60
2023-01-11T11:11:42.686Z,9.90
2023-01-11T11:14:16.967Z,10.20
2023-01-11T11:17:00.485Z,10.40
2023-01-11T11:19:33.942Z,9.90
2023-01-11T11:22:02.490Z,9.80
2023-01-11T11:24:38.488Z,10.00
2023-01-11T11:27:15.627Z,10.20
2023-01-11T11:29:51.356Z,10.40
2023-01-11T11:32:27.810Z,10.20
2023-01-11T11:34:56.568Z,10.10
2023-01-11T11:37:28.545Z,10.20
2023-01-11T11:40:01.196Z,10.40
2023-01-11T11:42:29.853Z,10.60
2023-01-11T11:45:19.428Z,10.70
2023-01-11T11:48:02.915Z,10.80
2023-01-11T11:50:49.135Z,10.40
2023-01-11T11:53:37.192Z,10.10
2023-01-11T11:56:17.538Z,10.20
2023-01-11T11:58:47.080Z,10.60
2023-01-11T12:01:25.511Z,10.80
2023-01-11T12:03:56.276Z,11.00
2023-01-11T12:06:27.299Z,11.20
2023-01-11T12:08:57.470Z,10.80
2023-01-11T12:11:35.142Z,10.30
2023-01-11T12:14:16.499Z,10.40
2023-01-11T12:16:46.518Z,10.70
2023-01-11T12:19:35.328Z,10.90
2023-01-11T12:22:16.837Z,10.50
2023-01-11T12:24:46.785Z,10.40
2023-01-11T12:27:34.809Z,10.70
2023-01-11T12:30:23.866Z,11.00
2023-01-11T12:33:24.210Z,11.30
2023-01-11T12:36:03.162Z,11.50
2023-01-11T12:38:39.829Z,11.30
2023-01-11T12:41:44.676Z,10.80
2023-01-11T12:44:24.894Z,10.70
2023-01-11T12:47:06.970Z,11.00
2023-01-11T12:49:45.277Z,11.20
2023-01-11T12:52:39.197Z,11.00
2023-01-11T12:55:23.922Z,10.70
2023-01-11T12:58:01.925Z,11.00
2023-01-11T13:01:07.895Z,11.20
2023-01-11T13:04:15.492Z,11.40
2023-01-11T13:06:53.817Z,11.40
2023-01-11T13:09:33.535Z,10.90
2023-01-11T13:12:10.009Z,10.80
2023-01-11T13:14:58.054Z,11.00
2023-01-11T13:17:32.720Z,11.20
2023-01-11T13:20:16.809Z,11.20
2023-01-11T13:22:53.487Z,11.00
2023-01-11T13:25:25.184Z,10.70
2023-01-11T13:27:55.567Z,10.80
2023-01-11T13:30:25.373Z,11.10
2023-01-11T13:32:59.248Z,11.30
2023-01-11T13:35:38.240Z,11.40
2023-01-11T13:38:16.379Z,11.50
2023-01-11T13:40:49.813Z,10.90
2023-01-11T13:43:27.353Z,10.70
2023-01-11T13:46:03.713Z,10.90
2023-01-11T13:48:40.334Z,11.10
2023-01-11T13:51:20.981Z,11.20
2023-01-11T13:53:58.145Z,11.10
2023-01-11T13:56:31.506Z,10.70
2023-01-11T13:59:07.022Z,10.80
2023-01-11T14:01:48.722Z,11.00
2023-01-11T14:04:24.169Z,11.20
2023-01-11T14:07:07.665Z,11.30
2023-01-11T14:10:02.116Z,11.00
2023-01-11T14:12:42.473Z,10.50
2023-01-11T14:15:21.358Z,10.40
2023-01-11T14:18:09.753Z,10.60
2023-01-11T14:20:50.499Z,10.80
2023-01-11T14:23:21.140Z,10.90
2023-01-11T14:26:31.164Z,11.10
2023-01-11T14:29:15.667Z,11.20
2023-01-11T14:32:00.565Z,10.60
2023-01-11T14:34:49.602Z,10.20
2023-01-11T14:37:52.935Z,10.30
2023-01-11T14:40:54.201Z,10.60
2023-01-11T14:44:07.676Z,10.80
2023-01-11T14:47:09.281Z,10.90
2023-01-11T14:49:59.598Z,11.00
2023-01-11T14:52:39.731Z,11.00
2023-01-11T14:55:17.559Z,11.00
2023-01-11T14:58:02.582Z,11.00
2023-01-11T15:01:05.331Z,11.00
2023-01-11T15:03:46.736Z,11.00
2023-01-11T15:06:17.340Z,10.90
2023-01-11T15:08:48.653Z,10.80
2023-01-11T15:11:34.976Z,10.70
2023-01-11T15:14:30.340Z,10.60
2023-01-11T15:17:19.718Z,10.50
2023-01-11T15:19:50.163Z,10.40
2023-01-11T15:22:30.438Z,10.30
2023-01-11T15:25:01.913Z,10.20
2023-01-11T15:27:35.793Z,10.10
2023-01-11T15:30:06.113Z,10.00
2023-01-11T15:32:36.221Z,9.90
2023-01-11T15:35:34.992Z,9.80
2023-01-11T15:38:16.670Z,9.70
2023-01-11T15:40:47.439Z,9.60
2023-01-11T15:43:58.708Z,9.50
2023-01-11T15:46:56.962Z,9.40
2023-01-11T15:50:04.359Z,9.30
2023-01-11T15:53:16.542Z,9.30
2023-01-11T15:56:19.444Z,9.20
2023-01-11T15:59:29.556Z,9.10
2023-01-11T16:02:32.363Z,9.00
2023-01-11T16:05:12.552Z,9.00
2023-01-11T16:07:49.940Z,8.90
2023-01-11T16:10:44.164Z,8.80
2023-01-11T16:13:30.903Z,8.70
2023-01-11T16:16:14.343Z,8.60
2023-01-11T16:18:46.732Z,8.60
2023-01-11T16:21:21.405Z,8.50
2023-01-11T16:23:52.814Z,8.40
2023-01-11T16:26:22.324Z,8.40
2023-01-11T16:28:53.378Z,8.30
2023-01-11T16:31:23.251Z,8.30
2023-01-11T16:33:52.450Z,8.20
2023-01-11T16:36:22.968Z,8.10
2023-01-11T16:39:03.264Z,8.10
2023-01-11T16:41:36.173Z,8.00
2023-01-11T16:44:08.870Z,7.90
2023-01-11T16:47:12.162Z,7.80
2023-01-11T16:49:41.138Z,7.70
2023-01-11T16:52:34.780Z,7.60
2023-01-11T16:55:05.294Z,7.40
2023-01-11T16:57:39.440Z,7.30
2023-01-11T17:00:21.049Z,7.20
2023-01-11T17:03:01.894Z,7.10
2023-01-11T17:05:30.344Z,7.10
2023-01-11T17:07:58.829Z,7.10
2023-01-11T17:10:29.033Z,7.10
2023-01-11T17:13:43.193Z,7.20
2023-01-11T17:16:14.686Z,7.20
2023-01-11T17:18:45.316Z,7.20
2023-01-11T17:21:19.761Z,7.20
2023-01-11T17:23:50.287Z,7.10
2023-01-11T17:26:23.996Z,7.10
2023-01-11T17:28:57.344Z,7.10
2023-01-11T17:31:28.691Z,7.20
2023-01-11T17:34:16.788Z,7.20
2023-01-11T17:36:46.189Z,7.10
2023-01-11T17:39:26.422Z,7.00
2023-01-11T17:42:12.904Z,6.90
2023-01-11T17:44:59.191Z,6.80
2023-01-11T17:47:29.313Z,6.70
2023-01-11T17:50:02.081Z,6.70
2023-01-11T17:52:38.973Z,6.60
2023-01-11T17:55:17.782Z,6.60
2023-01-11T17:58:04.744Z,6.60
2023-01-11T18:00:33.318Z,6.60
2023-01-11T18:03:06.916Z,6.60
2023-01-11T18:05:37.028Z,6.60
2023-01-11T18:08:19.113Z,6.60
2023-01-11T18:10:54.179Z,6.50
2023-01-11T18:13:28.617Z,6.40
2023-01-11T18:15:57.164Z,6.40
2023-01-11T18:18:45.513Z,6.30
2023-01-11T18:21:51.403Z,6.30
2023-01-11T18:24:35.391Z,6.20
2023-01-11T18:27:16.615Z,6.10
2023-01-11T18:29:50.035Z,6.10
2023-01-11T18:32:21.531Z,6.00
2023-01-11T18:34:53.336Z,6.00
2023-01-11T18:37:23.529Z,6.00
2023-01-11T18:39:53.221Z,5.90
2023-01-11T18:42:25.522Z,5.90
2023-01-11T18:44:54.233Z,5.90
2023-01-11T18:47:24.493Z,5.90
2023-01-11T18:49:54.154Z,5.80
2023-01-11T18:52:27.548Z,5.80
2023-01-11T18:54:57.283Z,5.80
2023-01-11T18:57:28.816Z,5.80
2023-01-11T18:59:58.869Z,5.70
2023-01-11T19:02:30.581Z,5.70
2023-01-11T19:05:02.216Z,5.80
2023-01-11T19:07:33.109Z,5.80
2023-01-11T19:10:02.764Z,5.80
2023-01-11T19:12:31.169Z,5.80
2023-01-11T19:15:00.135Z,5.80
2023-01-11T19:17:28.734Z,5.90
2023-01-11T19:19:57.166Z,5.90
2023-01-11T19:22:26.732Z,5.90
2023-01-11T19:24:57.164Z,5.90
2023-01-11T19:27:25.593Z,5.90
2023-01-11T19:29:54.160Z,5.90
2023-01-11T19:32:25.077Z,5.90
2023-01-11T19:34:58.031Z,5.80
2023-01-11T19:37:27.564Z,5.90
2023-01-11T19:39:57.407Z,5.90
2023-01-11T19:42:25.921Z,6.00
2023-01-11T19:44:55.168Z,6.10
2023-01-11T19:47:23.652Z,6.20
2023-01-11T19:49:58.944Z,6.30
2023-01-11T19:52:27.911Z,6.30
2023-01-11T19:54:57.909Z,6.30
2023-01-11T19:57:27.547Z,6.30
2023-01-11T19:59:56.026Z,6.40
2023-01-11T20:02:24.776Z,6.40
2023-01-11T20:04:53.242Z,6.40
2023-01-11T20:07:22.097Z,6.40
2023-01-11T20:09:52.892Z,6.50
2023-01-11T20:12:22.885Z,6.50
2023-01-11T20:14:54.047Z,6.60
2023-01-11T20:17:23.154Z,6.60
2023-01-11T20:19:54.592Z,6.70
2023-01-11T20:22:23.526Z,6.70
2023-01-11T20:24:52.280Z,6.80
2023-01-11T20:27:22.189Z,6.80
2023-01-11T20:29:50.672Z,6.90
2023-01-11T20:32:39.936Z,6.90
2023-01-11T20:35:08.810Z,6.90
2023-01-11T20:37:37.395Z,6.90
2023-01-11T20:40:06.960Z,6.90
2023-01-11T20:42:36.814Z,7.00
2023-01-11T20:45:06.186Z,7.00
2023-01-11T20:47:35.532Z,7.00
2023-01-11T20:50:04.041Z,7.00
2023-01-11T20:52:35.137Z,7.10
2023-01-11T20:55:03.598Z,7.10
2023-01-11T20:57:32.054Z,7.10
2023-01-11T21:00:02.949Z,7.10
2023-01-11T21:02:31.457Z,7.10
2023-01-11T21:04:59.965Z,7.10
2023-01-11T21:07:28.517Z,7.10
2023-01-11T21:09:56.984Z,7.10
2023-01-11T21:12:25.472Z,7.10
2023-01-11T21:14:55.845Z,7.20
2023-01-11T21:17:25.808Z,7.20
2023-01-11T21:19:54.263Z,7.20
2023-01-11T21:22:22.799Z,7.20
2023-01-11T21:24:51.352Z,7.30
2023-01-11T21:27:22.520Z,7.20
2023-01-11T21:29:50.929Z,7.20
2023-01-11T21:32:19.462Z,7.30
2023-01-11T21:34:49.350Z,7.30
2023-01-11T21:37:19.879Z,7.30
2023-01-11T21:39:48.395Z,7.30
2023-01-11T21:42:16.863Z,7.30
2023-01-11T21:44:45.293Z,7.30
2023-01-11T21:47:14.787Z,7.30
2023-01-11T21:49:43.511Z,7.30
2023-01-11T21:52:13.485Z,7.30
2023-01-11T21:54:41.960Z,7.30
2023-01-11T21:57:10.413Z,7.30
2023-01-11T21:59:39.000Z,7.30
2023-01-11T22:02:07.697Z,7.30
2023-01-11T22:04:36.798Z,7.30
2023-01-11T22:07:05.540Z,7.30
2023-01-11T22:09:35.553Z,7.30
2023-01-11T22:12:06.565Z,7.30
2023-01-11T22:14:35.644Z,7.30
2023-01-11T22:17:04.644Z,7.30
2023-01-11T22:19:33.169Z,7.30
2023-01-11T22:22:02.278Z,7.30
2023-01-11T22:24:30.761Z,7.30
2023-01-11T22:27:00.833Z,7.30
2023-01-11T22:29:29.867Z,7.30
2023-01-11T22:32:01.354Z,7.30
2023-01-11T22:34:30.603Z,7.40
2023-01-11T22:36:59.028Z,7.40
2023-01-11T22:39:29.523Z,7.40
2023-01-11T22:41:58.002Z,7.40
2023-01-11T22:44:30.361Z,7.40
2023-01-11T22:47:01.436Z,7.40
2023-01-11T22:49:29.893Z,7.40
2023-01-11T22:51:58.329Z,7.40
2023-01-11T22:54:26.858Z,7.40
2023-01-11T22:56:56.993Z,7.40
2023-01-11T22:59:25.743Z,7.40
2023-01-11T23:01:55.665Z,7.50
2023-01-11T23:04:24.402Z,7.40
2023-01-11T23:06:52.892Z,7.40
2023-01-11T23:09:21.465Z,7.50
2023-01-11T23:12:07.471Z,7.50
2023-01-11T23:14:36.164Z,7.40
2023-01-11T23:17:08.423Z,7.50
2023-01-11T23:19:39.011Z,7.50
2023-01-11T23:22:08.395Z,7.50
2023-01-11T23:24:37.485Z,7.50
2023-01-11T23:27:06.928Z,7.50
2023-01-11T23:29:35.684Z,7.50
2023-01-11T23:32:06.109Z,7.60
2023-01-11T23:34:34.855Z,7.60
2023-01-11T23:37:03.409Z,7.60
2023-01-11T23:39:32.851Z,7.60
2023-01-11T23:42:20.807Z,7.60
2023-01-11T23:44:49.575Z,7.60
2023-01-11T23:47:21.331Z,7.60
2023-01-11T23:49:50.620Z,7.60
2023-01-11T23:52:20.135Z,7.60
2023-01-11T23:54:48.794Z,7.60
2023-01-11T23:57:18.461Z,7.70
2023-01-11T23:59:47.286Z,7.70
